createdAt,value
2019-03-26T00:02:20.537Z,99076.69
2019-03-26T00:04:52.914Z,99066.32
2019-03-26T00:07:25.287Z,99073.03
2019-03-26T00:09:57.659Z,99075.62
2019-03-26T00:12:30.049Z,99084.24
2019-03-26T00:15:02.436Z,99088.07
2019-03-26T00:17:36.087Z,99092.95
2019-03-26T00:20:08.885Z,99096.77
2019-03-26T00:22:41.271Z,99090.47
2019-03-26T00:25:13.649Z,99093.44
2019-03-26T00:27:46.044Z,99099.02
2019-03-26T00:30:18.421Z,99099.02
2019-03-26T00:32:50.794Z,99109.86
2019-03-26T00:35:23.171Z,99102.19
2019-03-26T00:37:55.536Z,99111.75
2019-03-26T00:40:27.895Z,99115.70
2019-03-26T00:43:00.330Z,99115.92
2019-03-26T00:45:32.701Z,99124.57
2019-03-26T00:48:05.113Z,99121.52
2019-03-26T00:50:37.495Z,99130.19
2019-03-26T00:53:09.879Z,99133.75
2019-03-26T00:55:44.275Z,99140.18
2019-03-26T00:58:16.336Z,99137.64
2019-03-26T01:00:48.699Z,99145.31
2019-03-26T01:03:21.090Z,99148.84
2019-03-26T01:05:53.444Z,99150.14
2019-03-26T01:08:25.895Z,99152.63
2019-03-26T01:10:58.211Z,99149.20
2019-03-26T01:13:32.905Z,99156.86
2019-03-26T01:16:05.289Z,99159.56
2019-03-26T01:18:37.721Z,99159.67
2019-03-26T01:21:10.126Z,99149.42
2019-03-26T01:23:42.505Z,99147.77
2019-03-26T01:26:14.928Z,99146.64
2019-03-26T01:28:47.319Z,99145.45
2019-03-26T01:31:19.724Z,99148.67
2019-03-26T01:33:52.181Z,99154.75
2019-03-26T01:36:24.528Z,99151.38
2019-03-26T01:38:56.917Z,99159.25
2019-03-26T01:41:29.327Z,99157.28
2019-03-26T01:44:01.690Z,99158.95
2019-03-26T01:46:34.085Z,99153.61
2019-03-26T01:49:06.459Z,99159.92
2019-03-26T01:51:38.833Z,99162.79
2019-03-26T01:54:11.203Z,99157.34
2019-03-26T01:56:43.586Z,99153.98
2019-03-26T01:59:15.958Z,99152.42
2019-03-26T02:01:48.357Z,99144.59
2019-03-26T02:04:20.708Z,99150.31
2019-03-26T02:06:53.076Z,99147.83
2019-03-26T02:09:25.429Z,99148.66
2019-03-26T02:11:57.816Z,99155.13
2019-03-26T02:14:30.174Z,99150.11
2019-03-26T02:17:02.582Z,99154.51
2019-03-26T02:19:35.918Z,99162.79
2019-03-26T02:22:08.312Z,99168.91
2019-03-26T02:24:40.681Z,99169.00
2019-03-26T02:27:13.165Z,99176.88
2019-03-26T02:29:45.642Z,99170.97
2019-03-26T02:32:18.101Z,99172.84
2019-03-26T02:34:50.460Z,99174.73
2019-03-26T02:37:22.837Z,99174.05
2019-03-26T02:39:55.197Z,99170.06
2019-03-26T02:42:27.584Z,99170.92
2019-03-26T02:44:59.929Z,99174.55
2019-03-26T02:47:32.334Z,99177.18
2019-03-26T02:50:05.952Z,99177.63
2019-03-26T02:52:38.327Z,99179.91
2019-03-26T02:55:10.887Z,99187.75
2019-03-26T02:57:43.282Z,99186.27
2019-03-26T03:00:15.815Z,99186.41
2019-03-26T03:02:48.410Z,99187.05
2019-03-26T03:05:34.230Z,99185.85
2019-03-26T03:07:54.931Z,99187.38
2019-03-26T03:10:27.327Z,99191.39
2019-03-26T03:12:59.706Z,99195.36
2019-03-26T03:15:32.358Z,99206.16
2019-03-26T03:18:04.757Z,99205.33
2019-03-26T03:20:37.096Z,99205.21
2019-03-26T03:23:10.912Z,99207.06
2019-03-26T03:25:43.598Z,99214.23
2019-03-26T03:28:16.242Z,99210.44
2019-03-26T03:30:48.885Z,99217.70
2019-03-26T03:33:21.263Z,99215.57
2019-03-26T03:35:53.914Z,99219.08
2019-03-26T03:38:26.577Z,99221.45
2019-03-26T03:40:58.923Z,99223.70
2019-03-26T03:43:31.608Z,99215.44
2019-03-26T03:46:05.409Z,99218.88
2019-03-26T03:48:38.469Z,99222.42
2019-03-26T03:51:12.768Z,99233.47
2019-03-26T03:53:45.639Z,99236.88
2019-03-26T03:56:21.158Z,99234.68
2019-03-26T03:58:54.107Z,99238.89
2019-03-26T04:01:26.749Z,99249.90
2019-03-26T04:03:59.416Z,99245.68
2019-03-26T04:06:32.061Z,99254.80
2019-03-26T04:09:05.570Z,99257.84
2019-03-26T04:11:38.383Z,99259.55
2019-03-26T04:14:11.196Z,99262.47
2019-03-26T04:16:43.868Z,99257.77
2019-03-26T04:19:16.529Z,99257.27
2019-03-26T04:21:49.187Z,99263.42
2019-03-26T04:24:21.915Z,99265.78
2019-03-26T04:26:54.591Z,99269.59
2019-03-26T04:29:27.240Z,99272.66
2019-03-26T04:31:59.897Z,99269.43
2019-03-26T04:34:32.542Z,99265.26
2019-03-26T04:37:05.199Z,99270.53
2019-03-26T04:39:37.871Z,99267.16
2019-03-26T04:42:10.551Z,99262.91
2019-03-26T04:44:43.217Z,99273.16
2019-03-26T04:47:15.966Z,99282.91
2019-03-26T04:49:48.603Z,99285.15
2019-03-26T04:52:21.291Z,99284.20
2019-03-26T04:54:53.933Z,99276.53
2019-03-26T04:57:26.686Z,99278.24
2019-03-26T04:59:59.328Z,99279.69
2019-03-26T05:02:31.705Z,99271.85
2019-03-26T05:05:04.072Z,99278.48
2019-03-26T05:07:36.743Z,99285.77
2019-03-26T05:10:09.501Z,99287.72
2019-03-26T05:12:42.163Z,99288.64
2019-03-26T05:15:15.111Z,99286.90
2019-03-26T05:17:47.809Z,99293.42
2019-03-26T05:20:20.180Z,99292.70
2019-03-26T05:22:52.859Z,99291.27
2019-03-26T05:25:25.236Z,99294.30
2019-03-26T05:27:58.209Z,99302.88
2019-03-26T05:30:33.152Z,99303.15
2019-03-26T05:33:05.216Z,99299.47
2019-03-26T05:35:37.583Z,99312.23
2019-03-26T05:38:10.397Z,99314.31
2019-03-26T05:40:43.028Z,99315.16
2019-03-26T05:43:15.708Z,99317.63
2019-03-26T05:45:48.061Z,99326.42
2019-03-26T05:48:20.752Z,99329.08
2019-03-26T05:50:54.101Z,99327.22
2019-03-26T05:53:26.494Z,99326.27
2019-03-26T05:55:58.880Z,99331.22
2019-03-26T05:58:31.539Z,99337.91
2019-03-26T06:01:04.207Z,99337.75
2019-03-26T06:03:36.865Z,99340.67
2019-03-26T06:06:09.622Z,99343.30
2019-03-26T06:08:43.755Z,99347.55
2019-03-26T06:11:16.158Z,99348.58
2019-03-26T06:13:48.823Z,99352.00
2019-03-26T06:16:21.469Z,99354.47
2019-03-26T06:18:54.125Z,99350.47
2019-03-26T06:21:26.483Z,99347.77
2019-03-26T06:23:58.844Z,99356.28
2019-03-26T06:26:31.506Z,99354.83
2019-03-26T06:29:03.881Z,99358.30
2019-03-26T06:31:36.293Z,99355.88
2019-03-26T06:34:10.478Z,99356.02
2019-03-26T06:36:43.204Z,99361.90
2019-03-26T06:39:15.856Z,99366.08
2019-03-26T06:41:48.242Z,99369.41
2019-03-26T06:44:20.638Z,99374.76
2019-03-26T06:46:53.049Z,99378.55
2019-03-26T06:49:25.717Z,99380.17
2019-03-26T06:51:58.105Z,99378.22
2019-03-26T06:54:51.679Z,99386.17
2019-03-26T06:57:35.033Z,99384.34
2019-03-26T06:59:57.608Z,99389.75
2019-03-26T07:02:31.062Z,99396.29
2019-03-26T07:05:03.439Z,99397.82
2019-03-26T07:07:35.824Z,99400.52
2019-03-26T07:10:10.597Z,99400.30
2019-03-26T07:12:43.026Z,99396.27
2019-03-26T07:15:15.530Z,99399.69
2019-03-26T07:17:48.024Z,99398.59
2019-03-26T07:20:20.476Z,99402.10
2019-03-26T07:22:52.899Z,99402.13
2019-03-26T07:25:25.268Z,99402.17
2019-03-26T07:27:57.659Z,99402.34
2019-03-26T07:30:54.749Z,99407.76
2019-03-26T07:33:27.120Z,99410.30
2019-03-26T07:35:59.487Z,99411.40
2019-03-26T07:38:31.877Z,99418.09
2019-03-26T07:41:04.278Z,99406.45
2019-03-26T07:43:36.671Z,99412.68
2019-03-26T07:46:09.053Z,99423.63
2019-03-26T07:48:42.428Z,99426.44
2019-03-26T07:51:15.854Z,99426.18
2019-03-26T07:53:48.251Z,99415.02
2019-03-26T07:56:20.644Z,99415.47
2019-03-26T07:58:53.019Z,99418.14
2019-03-26T08:01:25.419Z,99415.95
2019-03-26T08:03:58.857Z,99428.55
2019-03-26T08:06:31.293Z,99428.20
2019-03-26T08:09:04.562Z,99433.05
2019-03-26T08:11:36.944Z,99436.05
2019-03-26T08:14:09.297Z,99431.20
2019-03-26T08:16:41.736Z,99425.19
2019-03-26T08:19:14.244Z,99433.01
2019-03-26T08:21:46.617Z,99427.87
2019-03-26T08:24:19.078Z,99425.44
2019-03-26T08:26:52.168Z,99421.91
2019-03-26T08:29:24.594Z,99412.39
2019-03-26T08:31:56.997Z,99420.09
2019-03-26T08:34:29.355Z,99418.91
2019-03-26T08:37:01.775Z,99418.64
2019-03-26T08:39:35.120Z,99415.05
2019-03-26T08:42:07.515Z,99423.09
2019-03-26T08:44:41.551Z,99426.01
2019-03-26T08:47:14.062Z,99430.46
2019-03-26T08:49:46.466Z,99430.45
2019-03-26T08:52:18.933Z,99425.12
2019-03-26T08:54:51.315Z,99437.13
2019-03-26T08:57:23.741Z,99436.11
2019-03-26T08:59:56.110Z,99443.42
2019-03-26T09:02:28.526Z,99442.72
2019-03-26T09:05:02.001Z,99450.98
2019-03-26T09:07:34.392Z,99456.38
2019-03-26T09:10:08.948Z,99455.95
2019-03-26T09:12:41.349Z,99450.89
2019-03-26T09:15:15.763Z,99446.05
2019-03-26T09:17:48.193Z,99451.70
2019-03-26T09:20:20.755Z,99445.14
2019-03-26T09:22:53.182Z,99444.57
2019-03-26T09:25:26.543Z,99444.08
2019-03-26T09:27:58.956Z,99441.52
2019-03-26T09:30:31.315Z,99447.23
2019-03-26T09:33:03.733Z,99448.27
2019-03-26T09:35:37.209Z,99451.14
2019-03-26T09:38:09.620Z,99447.50
2019-03-26T09:40:42.027Z,99448.00
2019-03-26T09:43:14.512Z,99450.56
2019-03-26T09:45:46.891Z,99452.41
2019-03-26T09:48:19.476Z,99455.50
2019-03-26T09:50:51.879Z,99452.95
2019-03-26T09:53:24.246Z,99459.20
2019-03-26T09:55:56.642Z,99465.14
2019-03-26T09:58:29.012Z,99462.55
2019-03-26T10:01:01.440Z,99465.05
2019-03-26T10:03:33.821Z,99462.14
2019-03-26T10:06:06.215Z,99460.18
2019-03-26T10:08:51.416Z,99463.94
2019-03-26T10:11:12.729Z,99464.20
2019-03-26T10:13:45.110Z,99458.23
2019-03-26T10:16:17.950Z,99453.02
2019-03-26T10:18:50.335Z,99452.47
2019-03-26T10:21:22.748Z,99457.28
2019-03-26T10:23:55.174Z,99461.27
2019-03-26T10:26:27.594Z,99458.65
2019-03-26T10:28:59.994Z,99452.29
2019-03-26T10:31:32.453Z,99453.02
2019-03-26T10:34:04.970Z,99454.52
2019-03-26T10:36:37.456Z,99456.98
2019-03-26T10:39:10.547Z,99456.55
2019-03-26T10:41:42.956Z,99451.31
2019-03-26T10:44:15.336Z,99450.76
2019-03-26T10:46:47.783Z,99445.53
2019-03-26T10:49:20.163Z,99447.34
2019-03-26T10:51:52.560Z,99441.47
2019-03-26T10:54:24.966Z,99445.14
2019-03-26T10:56:57.357Z,99444.67
2019-03-26T10:59:29.815Z,99433.19
2019-03-26T11:02:02.241Z,99446.06
2019-03-26T11:04:34.685Z,99442.98
2019-03-26T11:07:07.164Z,99443.02
2019-03-26T11:09:40.641Z,99432.77
2019-03-26T11:12:13.035Z,99424.28
2019-03-26T11:14:45.456Z,99424.86
2019-03-26T11:17:17.829Z,99408.80
2019-03-26T11:19:50.223Z,99410.02
2019-03-26T11:22:23.779Z,99411.97
2019-03-26T11:24:56.186Z,99409.91
2019-03-26T11:27:28.585Z,99410.58
2019-03-26T11:30:00.997Z,99408.59
2019-03-26T11:35:05.397Z,99407.12
2019-03-26T11:37:37.811Z,99405.75
2019-03-26T11:40:10.739Z,99407.66
2019-03-26T11:42:43.195Z,99401.11
2019-03-26T11:45:15.901Z,99396.83
2019-03-26T11:47:48.276Z,99400.97
2019-03-26T11:50:21.128Z,99400.36
2019-03-26T11:52:53.509Z,99401.67
2019-03-26T11:55:25.935Z,99404.52
2019-03-26T11:57:58.419Z,99394.03
2019-03-26T12:00:36.639Z,99399.86
2019-03-26T12:03:09.289Z,99397.64
2019-03-26T12:05:41.719Z,99395.17
2019-03-26T12:08:14.123Z,99394.23
2019-03-26T12:10:46.602Z,99395.59
2019-03-26T12:13:19.001Z,99393.44
2019-03-26T12:15:51.449Z,99383.92
2019-03-26T12:18:23.851Z,99385.66
2019-03-26T12:20:56.289Z,99386.06
2019-03-26T12:23:28.686Z,99389.58
2019-03-26T12:26:01.105Z,99389.58
2019-03-26T12:28:33.496Z,99385.48
2019-03-26T12:31:05.910Z,99388.58
2019-03-26T12:33:38.278Z,99384.77
2019-03-26T12:36:10.672Z,99381.05
2019-03-26T12:38:43.071Z,99378.38
2019-03-26T12:41:15.528Z,99382.30
2019-03-26T12:43:47.922Z,99376.83
2019-03-26T12:46:20.306Z,99371.83
2019-03-26T12:48:52.705Z,99374.22
2019-03-26T12:51:25.098Z,99368.25
2019-03-26T12:53:57.534Z,99361.45
2019-03-26T12:56:29.952Z,99358.28
2019-03-26T12:59:02.371Z,99357.45
2019-03-26T13:01:34.763Z,99349.12
2019-03-26T13:04:12.777Z,99351.24
2019-03-26T13:06:41.274Z,99356.38
2019-03-26T13:09:13.969Z,99348.78
2019-03-26T13:11:46.473Z,99345.42
2019-03-26T13:14:18.873Z,99350.47
2019-03-26T13:16:51.260Z,99353.94
2019-03-26T13:19:23.694Z,99346.37
2019-03-26T13:21:56.094Z,99347.69
2019-03-26T13:24:28.539Z,99345.53
2019-03-26T13:27:01.037Z,99349.84
2019-03-26T13:29:33.460Z,99341.27
2019-03-26T13:32:05.880Z,99346.52
2019-03-26T13:34:38.284Z,99337.37
2019-03-26T13:37:10.711Z,99329.75
2019-03-26T13:39:43.153Z,99317.41
2019-03-26T13:42:15.559Z,99329.50
2019-03-26T13:44:47.938Z,99329.67
2019-03-26T13:47:20.361Z,99327.72
2019-03-26T13:49:52.742Z,99322.42
2019-03-26T13:52:25.176Z,99324.45
2019-03-26T13:54:57.580Z,99317.57
2019-03-26T13:57:29.966Z,99320.29
2019-03-26T14:00:02.395Z,99311.46
2019-03-26T14:02:36.362Z,99315.25
2019-03-26T14:05:23.826Z,99310.94
2019-03-26T14:07:56.284Z,99310.55
2019-03-26T14:10:40.124Z,99311.30
2019-03-26T14:13:02.924Z,99304.28
2019-03-26T14:15:35.411Z,99305.48
2019-03-26T14:18:07.832Z,99305.45
2019-03-26T14:20:40.229Z,99301.21
2019-03-26T14:23:12.664Z,99304.89
2019-03-26T14:25:45.086Z,99296.46
2019-03-26T14:28:17.467Z,99291.84
2019-03-26T14:30:49.878Z,99294.01
2019-03-26T14:33:22.315Z,99292.86
2019-03-26T14:35:55.131Z,99293.02
2019-03-26T14:38:27.555Z,99297.45
2019-03-26T14:40:59.975Z,99309.59
2019-03-26T14:43:32.397Z,99308.75
2019-03-26T14:46:05.960Z,99304.67
2019-03-26T14:48:38.399Z,99301.67
2019-03-26T14:51:10.808Z,99301.07
2019-03-26T14:53:43.222Z,99310.20
2019-03-26T14:56:15.658Z,99309.97
2019-03-26T14:58:48.086Z,99304.30
2019-03-26T15:01:20.486Z,99308.43
2019-03-26T15:03:53.191Z,99317.58
2019-03-26T15:06:25.600Z,99313.44
2019-03-26T15:08:58.046Z,99308.90
2019-03-26T15:11:30.450Z,99318.41
2019-03-26T15:14:02.970Z,99315.56
2019-03-26T15:16:35.358Z,99317.80
2019-03-26T15:19:07.873Z,99311.04
2019-03-26T15:21:40.295Z,99324.66
2019-03-26T15:24:13.321Z,99310.38
2019-03-26T15:26:45.723Z,99315.59
2019-03-26T15:29:18.180Z,99315.73
2019-03-26T15:31:50.539Z,99309.89
2019-03-26T15:34:35.354Z,99313.27
2019-03-26T15:36:57.321Z,99312.91
2019-03-26T15:39:29.741Z,99307.75
2019-03-26T15:42:02.131Z,99304.85
2019-03-26T15:44:34.551Z,99307.28
2019-03-26T15:47:06.985Z,99305.59
2019-03-26T15:49:39.514Z,99309.81
2019-03-26T15:52:11.933Z,99306.81
2019-03-26T15:54:44.343Z,99315.94
2019-03-26T15:57:16.729Z,99318.55
2019-03-26T15:59:49.131Z,99317.77
2019-03-26T16:02:21.817Z,99320.05
2019-03-26T16:04:54.227Z,99330.80
2019-03-26T16:07:26.643Z,99326.99
2019-03-26T16:09:59.069Z,99328.15
2019-03-26T16:12:40.963Z,99330.14
2019-03-26T16:15:06.439Z,99333.61
2019-03-26T16:17:38.851Z,99338.28
2019-03-26T16:20:11.308Z,99345.42
2019-03-26T16:22:43.755Z,99339.78
2019-03-26T16:25:16.155Z,99340.22
2019-03-26T16:27:48.578Z,99350.17
2019-03-26T16:30:21.287Z,99355.24
2019-03-26T16:32:53.693Z,99351.58
2019-03-26T16:35:26.109Z,99357.69
2019-03-26T16:37:58.506Z,99358.50
2019-03-26T16:40:30.922Z,99357.96
2019-03-26T16:43:03.334Z,99355.89
2019-03-26T16:45:35.768Z,99363.94
2019-03-26T16:48:08.173Z,99358.71
2019-03-26T16:50:40.577Z,99360.39
2019-03-26T16:53:13.014Z,99357.70
2019-03-26T16:55:45.477Z,99364.15
2019-03-26T16:58:17.883Z,99364.15
2019-03-26T17:00:50.334Z,99364.35
2019-03-26T17:03:31.236Z,99357.14
2019-03-26T17:05:56.817Z,99353.11
2019-03-26T17:08:29.266Z,99350.90
2019-03-26T17:11:01.793Z,99353.97
2019-03-26T17:13:34.275Z,99360.48
2019-03-26T17:16:06.749Z,99362.61
2019-03-26T17:18:39.156Z,99362.82
2019-03-26T17:21:11.679Z,99362.35
2019-03-26T17:23:44.119Z,99357.91
2019-03-26T17:26:16.549Z,99362.68
2019-03-26T17:28:49.093Z,99364.69
2019-03-26T17:31:21.508Z,99358.24
2019-03-26T17:33:54.998Z,99360.08
2019-03-26T17:36:27.460Z,99360.20
2019-03-26T17:38:59.864Z,99355.87
2019-03-26T17:41:32.291Z,99359.24
2019-03-26T17:44:05.798Z,99362.51
2019-03-26T17:46:38.239Z,99362.90
2019-03-26T17:49:10.638Z,99364.97
2019-03-26T17:51:43.204Z,99368.34
2019-03-26T17:54:15.768Z,99372.01
2019-03-26T17:56:48.187Z,99377.07
2019-03-26T17:59:20.591Z,99371.33
2019-03-26T18:01:54.361Z,99375.11
2019-03-26T18:04:27.091Z,99382.42
2019-03-26T18:06:59.488Z,99382.30
2019-03-26T18:09:31.952Z,99383.46
2019-03-26T18:12:04.352Z,99385.20
2019-03-26T18:14:36.955Z,99389.91
2019-03-26T18:17:09.367Z,99393.81
2019-03-26T18:19:41.814Z,99396.78
2019-03-26T18:22:14.313Z,99396.28
2019-03-26T18:24:46.710Z,99403.22
2019-03-26T18:27:19.264Z,99404.66
2019-03-26T18:29:51.776Z,99404.28
2019-03-26T18:32:24.174Z,99413.70
2019-03-26T18:34:56.608Z,99413.27
2019-03-26T18:37:30.152Z,99404.86
2019-03-26T18:40:02.683Z,99406.63
2019-03-26T18:42:43.915Z,99405.77
2019-03-26T18:45:09.581Z,99406.70
2019-03-26T18:47:42.000Z,99410.07
2019-03-26T18:50:14.728Z,99406.70
2019-03-26T18:52:47.163Z,99407.59
2019-03-26T18:55:19.657Z,99410.97
2019-03-26T18:57:52.107Z,99406.36
2019-03-26T19:00:36.310Z,99408.96
2019-03-26T19:03:09.375Z,99410.73
2019-03-26T19:05:41.807Z,99413.39
2019-03-26T19:08:14.219Z,99410.20
2019-03-26T19:10:46.615Z,99403.75
2019-03-26T19:13:20.195Z,99399.58
2019-03-26T19:15:52.713Z,99413.25
2019-03-26T19:18:25.168Z,99407.27
2019-03-26T19:21:02.311Z,99417.28
2019-03-26T19:23:32.869Z,99413.44
2019-03-26T19:26:05.302Z,99414.99
2019-03-26T19:28:37.681Z,99416.76
2019-03-26T19:31:10.172Z,99416.30
2019-03-26T19:33:42.589Z,99415.45
2019-03-26T19:36:14.998Z,99422.03
2019-03-26T19:38:47.426Z,99419.08
2019-03-26T19:41:19.838Z,99420.84
2019-03-26T19:43:52.316Z,99421.22
2019-03-26T19:46:24.742Z,99413.48
2019-03-26T19:48:57.147Z,99413.94
2019-03-26T19:51:29.571Z,99415.37
2019-03-26T19:54:03.052Z,99411.65
2019-03-26T19:56:35.483Z,99421.16
2019-03-26T19:59:08.108Z,99415.13
2019-03-26T20:01:40.582Z,99419.09
2019-03-26T20:04:13.006Z,99418.16
2019-03-26T20:06:45.478Z,99420.39
2019-03-26T20:09:17.888Z,99423.42
2019-03-26T20:11:50.331Z,99428.69
2019-03-26T20:14:22.715Z,99426.20
2019-03-26T20:16:55.183Z,99436.18
2019-03-26T20:19:27.709Z,99422.77
2019-03-26T20:22:00.168Z,99429.21
2019-03-26T20:24:32.600Z,99419.64
2019-03-26T20:27:05.140Z,99421.00
2019-03-26T20:29:37.531Z,99426.73
2019-03-26T20:32:09.963Z,99431.94
2019-03-26T20:34:42.362Z,99426.20
2019-03-26T20:37:14.835Z,99428.75
2019-03-26T20:39:47.255Z,99430.05
2019-03-26T20:42:19.813Z,99432.77
2019-03-26T20:44:52.343Z,99441.50
2019-03-26T20:47:24.776Z,99446.36
2019-03-26T20:49:57.301Z,99445.00
2019-03-26T20:52:29.727Z,99447.72
2019-03-26T20:55:02.381Z,99445.70
2019-03-26T20:57:34.923Z,99444.91
2019-03-26T21:00:09.732Z,99445.48
2019-03-26T21:02:42.922Z,99447.19
2019-03-26T21:05:15.459Z,99442.36
2019-03-26T21:07:48.027Z,99447.97
2019-03-26T21:10:20.426Z,99457.07
2019-03-26T21:12:53.025Z,99455.30
2019-03-26T21:15:25.427Z,99458.38
2019-03-26T21:17:57.835Z,99452.27
2019-03-26T21:20:30.231Z,99457.12
2019-03-26T21:23:02.684Z,99456.72
2019-03-26T21:25:35.285Z,99456.23
2019-03-26T21:28:08.036Z,99454.24
2019-03-26T21:30:40.471Z,99455.55
2019-03-26T21:33:12.970Z,99453.98
2019-03-26T21:35:46.500Z,99448.50
2019-03-26T21:38:19.817Z,99448.04
2019-03-26T21:40:52.217Z,99447.98
2019-03-26T21:43:24.603Z,99444.48
2019-03-26T21:45:57.045Z,99447.98
2019-03-26T21:48:29.475Z,99448.04
2019-03-26T21:51:01.881Z,99455.78
2019-03-26T21:53:34.294Z,99456.30
2019-03-26T21:56:07.224Z,99456.77
2019-03-26T21:58:39.706Z,99460.78
2019-03-26T22:01:12.082Z,99464.34
2019-03-26T22:03:45.563Z,99464.86
2019-03-26T22:06:17.973Z,99467.05
2019-03-26T22:08:51.846Z,99466.39
2019-03-26T22:11:24.235Z,99465.62
2019-03-26T22:13:56.627Z,99465.44
2019-03-26T22:16:29.039Z,99468.88
2019-03-26T22:19:02.606Z,99468.05
2019-03-26T22:21:36.149Z,99469.45
2019-03-26T22:24:08.591Z,99478.61
2019-03-26T22:26:40.998Z,99473.01
2019-03-26T22:29:13.418Z,99472.11
2019-03-26T22:31:45.832Z,99474.25
2019-03-26T22:34:18.212Z,99476.02
2019-03-26T22:36:50.728Z,99466.97
2019-03-26T22:39:23.111Z,99464.44
2019-03-26T22:41:55.719Z,99459.61
2019-03-26T22:44:31.701Z,99469.05
2019-03-26T22:47:02.231Z,99475.55
2019-03-26T22:49:34.611Z,99481.33
2019-03-26T22:52:07.023Z,99477.43
2019-03-26T22:54:39.421Z,99474.95
2019-03-26T22:57:11.817Z,99475.44
2019-03-26T22:59:44.229Z,99474.66
2019-03-26T23:02:16.686Z,99472.17
2019-03-26T23:04:49.088Z,99472.75
2019-03-26T23:07:21.526Z,99475.95
2019-03-26T23:09:53.980Z,99475.27
2019-03-26T23:12:26.368Z,99477.41
2019-03-26T23:14:58.760Z,99473.03
2019-03-26T23:17:31.171Z,99476.52
2019-03-26T23:20:03.544Z,99479.06
2019-03-26T23:22:35.991Z,99484.66
2019-03-26T23:25:08.416Z,99489.34
2019-03-26T23:27:40.863Z,99483.80
2019-03-26T23:30:13.625Z,99475.33
2019-03-26T23:32:46.008Z,99477.94
2019-03-26T23:35:18.477Z,99472.22
2019-03-26T23:37:50.880Z,99470.80
2019-03-26T23:40:23.284Z,99475.83
2019-03-26T23:42:55.663Z,99474.59
2019-03-26T23:45:28.033Z,99478.11
2019-03-26T23:48:00.428Z,99480.59
2019-03-26T23:50:32.817Z,99481.90
2019-03-26T23:53:06.287Z,99482.44
2019-03-26T23:55:38.645Z,99487.69
2019-03-26T23:58:11.029Z,99488.21
